createdAt,value
2022-10-09T00:00:01.095Z,18
2022-10-09T00:01:01.095Z,20
2022-10-09T00:03:01.133Z,19
2022-10-09T00:04:01.095Z,20
2022-10-09T00:05:01.159Z,19
2022-10-09T00:06:01.098Z,16
2022-10-09T00:08:01.166Z,15
2022-10-09T00:09:01.096Z,14
2022-10-09T00:10:01.095Z,13
2022-10-09T00:11:01.095Z,15
2022-10-09T00:12:01.095Z,14
2022-10-09T00:13:01.134Z,16
2022-10-09T00:15:01.098Z,19
2022-10-09T00:17:01.112Z,20
2022-10-09T00:18:01.133Z,19
2022-10-09T00:19:01.096Z,20
2022-10-09T00:20:01.095Z,18
2022-10-09T00:21:01.098Z,17
2022-10-09T00:24:01.198Z,18
2022-10-09T00:27:01.079Z,19
2022-10-09T00:29:01.193Z,18
2022-10-09T00:30:01.081Z,19
2022-10-09T00:33:01.146Z,17
2022-10-09T00:35:01.213Z,16
2022-10-09T00:36:01.148Z,17
2022-10-09T00:37:01.147Z,18
2022-10-09T00:40:01.239Z,19
2022-10-09T00:42:01.149Z,17
2022-10-09T00:44:01.220Z,18
2022-10-09T00:45:01.085Z,18
2022-10-09T00:46:01.187Z,17
2022-10-09T00:47:01.151Z,15
2022-10-09T00:48:01.084Z,16
2022-10-09T00:50:01.110Z,15
2022-10-09T00:51:01.084Z,18
2022-10-09T00:52:01.082Z,19
2022-10-09T00:53:01.085Z,18
2022-10-09T00:54:01.111Z,17
2022-10-09T00:55:01.083Z,18
2022-10-09T00:56:01.109Z,17
2022-10-09T00:57:01.083Z,19
2022-10-09T00:58:01.084Z,21
2022-10-09T00:59:01.113Z,22
2022-10-09T01:00:01.118Z,21
2022-10-09T01:02:01.324Z,18
2022-10-09T01:04:01.111Z,17
2022-10-09T01:05:02.109Z,16
2022-10-09T01:06:01.084Z,17
2022-10-09T01:07:01.086Z,19
2022-10-09T01:08:01.085Z,18
2022-10-09T01:09:01.120Z,16
2022-10-09T01:10:01.099Z,18
2022-10-09T01:14:01.175Z,19
2022-10-09T01:15:01.115Z,19
2022-10-09T01:16:01.130Z,17
2022-10-09T01:18:01.099Z,18
2022-10-09T01:20:01.119Z,16
2022-10-09T01:21:01.097Z,17
2022-10-09T01:26:01.119Z,18
2022-10-09T01:28:01.093Z,17
2022-10-09T01:29:01.091Z,19
2022-10-09T01:30:01.142Z,19
2022-10-09T01:31:01.206Z,17
2022-10-09T01:33:01.092Z,18
2022-10-09T01:34:01.090Z,17
2022-10-09T01:36:01.099Z,18
2022-10-09T01:37:01.093Z,17
2022-10-09T01:40:01.132Z,16
2022-10-09T01:41:01.093Z,15
2022-10-09T01:42:01.096Z,16
2022-10-09T01:43:01.096Z,15
2022-10-09T01:44:01.094Z,17
2022-10-09T01:45:01.134Z,17
2022-10-09T01:46:01.151Z,19
2022-10-09T01:48:01.095Z,20
2022-10-09T01:49:01.102Z,19
2022-10-09T01:51:01.230Z,17
2022-10-09T01:52:01.093Z,18
2022-10-09T01:53:01.121Z,17
2022-10-09T01:55:01.094Z,18
2022-10-09T01:57:01.100Z,17
2022-10-09T01:59:01.093Z,18
2022-10-09T02:00:01.093Z,16
2022-10-09T02:01:01.131Z,17
2022-10-09T02:02:02.318Z,19
2022-10-09T02:03:01.131Z,18
2022-10-09T02:07:01.140Z,17
2022-10-09T02:08:01.091Z,20
2022-10-09T02:10:01.092Z,19
2022-10-09T02:13:01.256Z,18
2022-10-09T02:14:01.095Z,19
2022-10-09T02:15:01.100Z,19
2022-10-09T02:16:01.170Z,18
2022-10-09T02:17:01.095Z,17
2022-10-09T02:18:01.160Z,15
2022-10-09T02:19:01.093Z,14
2022-10-09T02:20:01.096Z,15
2022-10-09T02:21:01.099Z,18
2022-10-09T02:22:01.098Z,17
2022-10-09T02:24:01.097Z,18
2022-10-09T02:25:01.095Z,16
2022-10-09T02:26:01.096Z,15
2022-10-09T02:27:01.097Z,14
2022-10-09T02:28:01.139Z,16
2022-10-09T02:29:01.098Z,15
2022-10-09T02:30:01.097Z,17
2022-10-09T02:31:01.146Z,16
2022-10-09T02:32:01.099Z,17
2022-10-09T02:34:01.106Z,16
2022-10-09T02:35:01.081Z,17
2022-10-09T02:37:01.081Z,18
2022-10-09T02:38:01.082Z,17
2022-10-09T02:39:01.111Z,18
2022-10-09T02:40:01.080Z,20
2022-10-09T02:41:01.082Z,19
2022-10-09T02:45:01.115Z,17
2022-10-09T02:46:01.111Z,18
2022-10-09T02:47:01.083Z,19
2022-10-09T02:51:01.170Z,18
2022-10-09T02:52:01.083Z,16
2022-10-09T02:55:01.117Z,15
2022-10-09T02:56:01.082Z,16
2022-10-09T02:59:01.085Z,18
2022-10-09T03:00:01.084Z,19
2022-10-09T03:01:01.083Z,18
2022-10-09T03:02:01.148Z,19
2022-10-09T03:04:02.111Z,16
2022-10-09T03:06:01.082Z,17
2022-10-09T03:10:01.107Z,16
2022-10-09T03:11:01.084Z,17
2022-10-09T03:13:01.083Z,16
2022-10-09T03:15:01.083Z,16
2022-10-09T03:16:01.127Z,15
2022-10-09T03:17:01.082Z,16
2022-10-09T03:18:01.084Z,17
2022-10-09T03:20:01.118Z,18
2022-10-09T03:23:01.147Z,19
2022-10-09T03:24:01.082Z,18
2022-10-09T03:26:01.105Z,17
2022-10-09T03:27:01.082Z,16
2022-10-09T03:28:01.084Z,17
2022-10-09T03:30:01.123Z,17
2022-10-09T03:32:01.189Z,18
2022-10-09T03:33:01.091Z,19
2022-10-09T03:34:01.086Z,20
2022-10-09T03:35:01.085Z,21
2022-10-09T03:36:01.091Z,22
2022-10-09T03:37:01.084Z,21
2022-10-09T03:38:01.088Z,19
2022-10-09T03:39:01.090Z,18
2022-10-09T03:43:01.237Z,17
2022-10-09T03:45:01.086Z,17
2022-10-09T03:46:01.297Z,16
2022-10-09T03:48:01.086Z,18
2022-10-09T03:49:01.085Z,20
2022-10-09T03:50:01.085Z,18
2022-10-09T03:51:01.086Z,19
2022-10-09T03:52:01.086Z,18
2022-10-09T03:53:01.085Z,19
2022-10-09T03:55:01.141Z,18
2022-10-09T03:56:01.087Z,17
2022-10-09T03:59:01.111Z,14
2022-10-09T04:00:01.093Z,16
2022-10-09T04:02:01.087Z,17
2022-10-09T04:03:01.137Z,16
2022-10-09T04:04:01.095Z,17
2022-10-09T04:05:01.087Z,18
2022-10-09T04:06:01.087Z,19
2022-10-09T04:07:01.094Z,18
2022-10-09T04:09:01.092Z,20
2022-10-09T04:10:01.140Z,19
2022-10-09T04:11:01.089Z,18
2022-10-09T04:12:01.089Z,19
2022-10-09T04:13:01.090Z,20
2022-10-09T04:14:01.088Z,19
2022-10-09T04:15:01.113Z,18
2022-10-09T04:18:01.091Z,17
2022-10-09T04:19:01.092Z,15
2022-10-09T04:20:01.094Z,16
2022-10-09T04:21:01.117Z,17
2022-10-09T04:23:01.091Z,15
2022-10-09T04:24:01.092Z,18
2022-10-09T04:25:01.093Z,17
2022-10-09T04:26:01.120Z,16
2022-10-09T04:27:01.095Z,15
2022-10-09T04:28:01.092Z,17
2022-10-09T04:29:01.093Z,15
2022-10-09T04:30:01.106Z,17
2022-10-09T04:31:01.275Z,19
2022-10-09T04:33:01.095Z,18
2022-10-09T04:35:01.093Z,16
2022-10-09T04:36:01.256Z,15
2022-10-09T04:37:01.093Z,14
2022-10-09T04:38:01.093Z,13
2022-10-09T04:39:01.095Z,12
2022-10-09T04:40:01.095Z,13
2022-10-09T04:42:01.150Z,14
2022-10-09T04:43:01.096Z,15
2022-10-09T04:44:01.094Z,17
2022-10-09T04:45:01.106Z,18
2022-10-09T04:46:01.156Z,17
2022-10-09T04:48:01.145Z,19
2022-10-09T04:49:01.094Z,18
2022-10-09T04:51:01.093Z,19
2022-10-09T04:53:01.094Z,17
2022-10-09T04:54:01.092Z,18
2022-10-09T04:55:01.092Z,17
2022-10-09T04:56:01.092Z,19
2022-10-09T04:57:01.094Z,18
2022-10-09T04:58:01.096Z,19
2022-10-09T04:59:01.096Z,17
2022-10-09T05:00:01.096Z,17
2022-10-09T05:01:01.122Z,15
2022-10-09T05:06:01.119Z,17
2022-10-09T05:07:01.093Z,18
2022-10-09T05:08:01.098Z,19
2022-10-09T05:09:01.093Z,20
2022-10-09T05:11:01.158Z,18
2022-10-09T05:12:01.093Z,19
2022-10-09T05:13:01.096Z,17
2022-10-09T05:15:01.094Z,16
2022-10-09T05:16:01.115Z,15
2022-10-09T05:17:13.449Z,14
2022-10-09T05:18:01.130Z,15
2022-10-09T05:19:01.095Z,17
2022-10-09T05:20:01.098Z,19
2022-10-09T05:23:01.218Z,18
2022-10-09T05:24:01.096Z,16
2022-10-09T05:25:01.094Z,14
2022-10-09T05:26:01.099Z,16
2022-10-09T05:27:01.099Z,15
2022-10-09T05:28:01.120Z,16
2022-10-09T05:29:01.094Z,15
2022-10-09T05:30:01.094Z,18
2022-10-09T05:31:01.093Z,16
2022-10-09T05:33:01.120Z,17
2022-10-09T05:34:01.095Z,19
2022-10-09T05:35:01.092Z,18
2022-10-09T05:36:01.094Z,19
2022-10-09T05:37:01.096Z,21
2022-10-09T05:38:01.122Z,22
2022-10-09T05:39:01.145Z,21
2022-10-09T05:40:01.095Z,22
2022-10-09T05:41:01.094Z,19
2022-10-09T05:42:01.094Z,17
2022-10-09T05:43:01.094Z,18
2022-10-09T05:44:01.093Z,20
2022-10-09T05:45:01.096Z,18
2022-10-09T05:46:01.171Z,20
2022-10-09T05:47:01.093Z,21
2022-10-09T05:48:01.094Z,18
2022-10-09T05:49:01.099Z,16
2022-10-09T05:51:01.223Z,18
2022-10-09T05:53:01.095Z,20
2022-10-09T05:55:01.190Z,21
2022-10-09T05:56:03.653Z,19
2022-10-09T05:58:01.096Z,20
2022-10-09T05:59:01.096Z,21
2022-10-09T06:00:01.096Z,22
2022-10-09T06:01:01.167Z,24
2022-10-09T06:02:01.132Z,22
2022-10-09T06:06:01.110Z,20
2022-10-09T06:08:01.093Z,19
2022-10-09T06:09:01.095Z,17
2022-10-09T06:10:01.094Z,18
2022-10-09T06:11:01.120Z,17
2022-10-09T06:13:01.092Z,16
2022-10-09T06:15:01.098Z,14
2022-10-09T06:16:01.239Z,16
2022-10-09T06:17:01.142Z,15
2022-10-09T06:18:01.096Z,18
2022-10-09T06:20:01.099Z,19
2022-10-09T06:21:01.100Z,18
2022-10-09T06:22:01.095Z,19
2022-10-09T06:23:01.103Z,17
2022-10-09T06:26:01.097Z,18
2022-10-09T06:29:01.107Z,17
2022-10-09T06:30:01.083Z,18
2022-10-09T06:31:01.123Z,17
2022-10-09T06:32:01.087Z,16
2022-10-09T06:33:01.084Z,17
2022-10-09T06:35:01.084Z,18
2022-10-09T06:38:01.084Z,16
2022-10-09T06:39:01.080Z,17
2022-10-09T06:40:01.099Z,16
2022-10-09T06:42:01.093Z,18
2022-10-09T06:43:01.082Z,20
2022-10-09T06:44:01.081Z,18
2022-10-09T06:45:01.108Z,18
2022-10-09T06:46:01.212Z,19
2022-10-09T06:48:01.083Z,17
2022-10-09T06:49:01.082Z,19
2022-10-09T06:50:01.086Z,20
2022-10-09T06:51:01.085Z,19
2022-10-09T06:54:01.082Z,17
2022-10-09T06:56:01.084Z,16
2022-10-09T06:57:01.089Z,14
2022-10-09T06:58:01.084Z,16
2022-10-09T06:59:01.085Z,18
2022-10-09T07:00:01.084Z,17
2022-10-09T07:01:01.106Z,18
2022-10-09T07:02:01.210Z,20
2022-10-09T07:03:01.169Z,19
2022-10-09T07:04:01.083Z,17
2022-10-09T07:06:01.087Z,16
2022-10-09T07:07:01.085Z,13
2022-10-09T07:10:01.084Z,15
2022-10-09T07:13:01.083Z,17
2022-10-09T07:14:01.087Z,16
2022-10-09T07:15:01.088Z,17
2022-10-09T07:18:01.107Z,18
2022-10-09T07:19:01.097Z,19
2022-10-09T07:20:01.084Z,18
2022-10-09T07:21:01.084Z,19
2022-10-09T07:22:01.084Z,20
2022-10-09T07:23:01.087Z,19
2022-10-09T07:24:01.085Z,18
2022-10-09T07:25:01.149Z,17
2022-10-09T07:26:01.084Z,18
2022-10-09T07:27:01.083Z,17
2022-10-09T07:28:01.112Z,18
2022-10-09T07:30:01.099Z,18
2022-10-09T07:31:01.145Z,16
2022-10-09T07:32:01.086Z,17
2022-10-09T07:35:01.149Z,18
2022-10-09T07:36:01.088Z,19
2022-10-09T07:38:01.086Z,18
2022-10-09T07:39:01.089Z,19
2022-10-09T07:41:01.152Z,18
2022-10-09T07:42:01.088Z,17
2022-10-09T07:44:01.091Z,16
2022-10-09T07:45:01.089Z,18
2022-10-09T07:46:01.131Z,17
2022-10-09T07:47:01.088Z,20
2022-10-09T07:48:01.092Z,21
2022-10-09T07:50:01.141Z,19
2022-10-09T07:52:01.180Z,18
2022-10-09T07:53:01.091Z,17
2022-10-09T07:54:01.089Z,18
2022-10-09T07:56:01.090Z,16
2022-10-09T07:59:01.091Z,14
2022-10-09T08:00:01.091Z,15
2022-10-09T08:01:01.122Z,17
2022-10-09T08:02:01.151Z,16
2022-10-09T08:04:01.099Z,19
2022-10-09T08:05:01.104Z,20
2022-10-09T08:06:01.092Z,19
2022-10-09T08:07:01.093Z,21
2022-10-09T08:08:01.153Z,22
2022-10-09T08:09:01.093Z,20
2022-10-09T08:10:01.130Z,19
2022-10-09T08:11:01.097Z,18
2022-10-09T08:12:01.095Z,17
2022-10-09T08:13:01.093Z,15
2022-10-09T08:14:01.094Z,14
2022-10-09T08:15:01.130Z,14
2022-10-09T08:16:01.275Z,15
2022-10-09T08:17:01.096Z,13
2022-10-09T08:18:01.094Z,14
2022-10-09T08:19:01.095Z,15
2022-10-09T08:20:01.136Z,14
2022-10-09T08:21:01.103Z,13
2022-10-09T08:22:03.375Z,14
2022-10-09T08:23:01.097Z,15
2022-10-09T08:24:01.118Z,17
2022-10-09T08:25:01.139Z,16
2022-10-09T08:26:01.092Z,17
2022-10-09T08:28:01.092Z,16
2022-10-09T08:29:01.160Z,15
2022-10-09T08:30:01.136Z,15
2022-10-09T08:31:01.109Z,16
2022-10-09T08:32:01.093Z,17
2022-10-09T08:34:01.094Z,19
2022-10-09T08:35:01.120Z,20
2022-10-09T08:36:01.092Z,19
2022-10-09T08:39:01.094Z,17
2022-10-09T08:40:01.152Z,19
2022-10-09T08:42:01.159Z,18
2022-10-09T08:43:01.096Z,19
2022-10-09T08:45:01.130Z,19
2022-10-09T08:47:01.079Z,18
2022-10-09T08:48:01.081Z,19
2022-10-09T08:49:01.080Z,18
2022-10-09T08:50:01.086Z,19
2022-10-09T08:55:01.144Z,18
2022-10-09T08:58:01.105Z,16
2022-10-09T09:00:01.080Z,17
2022-10-09T09:02:01.254Z,16
2022-10-09T09:03:01.138Z,15
2022-10-09T09:06:01.081Z,16
2022-10-09T09:08:01.082Z,18
2022-10-09T09:09:01.080Z,19
2022-10-09T09:10:01.081Z,20
2022-10-09T09:11:01.083Z,19
2022-10-09T09:13:01.082Z,18
2022-10-09T09:14:01.109Z,17
2022-10-09T09:15:01.128Z,17
2022-10-09T09:18:01.088Z,15
2022-10-09T09:20:01.102Z,14
2022-10-09T09:22:01.088Z,16
2022-10-09T09:23:01.086Z,18
2022-10-09T09:24:01.097Z,20
2022-10-09T09:25:01.085Z,21
2022-10-09T09:26:01.085Z,20
2022-10-09T09:29:01.182Z,19
2022-10-09T09:30:01.111Z,17
2022-10-09T09:32:01.158Z,15
2022-10-09T09:33:01.090Z,16
2022-10-09T09:34:01.088Z,15
2022-10-09T09:35:01.087Z,13
2022-10-09T09:36:01.091Z,14
2022-10-09T09:59:00.467Z,11
2022-10-09T10:00:00.285Z,13
2022-10-09T10:01:00.414Z,15
2022-10-09T10:02:00.367Z,16
2022-10-09T10:04:00.286Z,19
2022-10-09T10:05:00.288Z,18
2022-10-09T10:08:00.323Z,19
2022-10-09T10:09:00.287Z,17
2022-10-09T10:10:00.289Z,18
2022-10-09T10:11:00.287Z,17
2022-10-09T10:12:00.287Z,18
2022-10-09T10:13:00.321Z,17
2022-10-09T10:14:00.294Z,18
2022-10-09T10:15:00.324Z,18
2022-10-09T10:16:00.337Z,20
2022-10-09T10:17:00.287Z,17
2022-10-09T10:18:00.323Z,18
2022-10-09T10:19:00.287Z,19
2022-10-09T10:20:00.287Z,20
2022-10-09T10:21:00.290Z,18
2022-10-09T10:22:00.289Z,19
2022-10-09T10:25:00.291Z,17
2022-10-09T10:26:00.289Z,19
2022-10-09T10:27:00.295Z,18
2022-10-09T10:28:00.291Z,17
2022-10-09T10:30:00.317Z,16
2022-10-09T10:31:00.357Z,15
2022-10-09T10:32:00.290Z,16
2022-10-09T10:33:00.290Z,17
2022-10-09T10:34:00.355Z,16
2022-10-09T10:35:00.326Z,17
2022-10-09T10:37:01.132Z,16
2022-10-09T10:38:00.293Z,17
2022-10-09T10:39:00.293Z,19
2022-10-09T10:40:00.485Z,18
2022-10-09T10:41:00.293Z,17
2022-10-09T10:42:00.293Z,18
2022-10-09T10:43:00.358Z,20
2022-10-09T10:44:00.294Z,19
2022-10-09T10:45:00.440Z,20
2022-10-09T10:49:00.317Z,18
2022-10-09T10:50:00.343Z,19
2022-10-09T10:52:00.362Z,18
2022-10-09T10:53:00.293Z,19
2022-10-09T10:54:00.295Z,18
2022-10-09T10:55:00.332Z,17
2022-10-09T10:58:00.294Z,16
2022-10-09T10:59:00.302Z,18
2022-10-09T11:00:00.332Z,18
2022-10-09T11:01:00.341Z,17
2022-10-09T11:02:00.297Z,16
2022-10-09T11:03:00.326Z,15
2022-10-09T11:04:00.295Z,16
2022-10-09T11:05:00.348Z,15
2022-10-09T11:07:00.297Z,17
2022-10-09T11:10:00.325Z,18
2022-10-09T11:11:00.298Z,19
2022-10-09T11:12:00.297Z,18
2022-10-09T11:14:00.300Z,19
2022-10-09T11:15:00.332Z,19
2022-10-09T11:19:00.307Z,18
2022-10-09T11:20:00.342Z,20
2022-10-09T11:22:00.387Z,19
2022-10-09T11:24:00.301Z,17
2022-10-09T11:25:00.329Z,15
2022-10-09T11:27:03.320Z,16
2022-10-09T11:28:00.300Z,15
2022-10-09T11:29:00.300Z,16
2022-10-09T11:30:00.336Z,16
2022-10-09T11:31:00.303Z,18
2022-10-09T11:32:00.361Z,17
2022-10-09T11:33:00.303Z,16
2022-10-09T11:34:00.303Z,17
2022-10-09T11:35:00.355Z,16
2022-10-09T11:37:01.329Z,14
2022-10-09T11:38:00.326Z,15
2022-10-09T11:40:00.342Z,16
2022-10-09T11:41:02.615Z,15
2022-10-09T11:42:00.305Z,17
2022-10-09T11:44:00.306Z,19
2022-10-09T11:45:00.345Z,19
2022-10-09T11:46:00.434Z,18
2022-10-09T11:47:01.844Z,19
2022-10-09T11:50:00.353Z,17
2022-10-09T11:51:00.306Z,18
2022-10-09T11:52:00.308Z,19
2022-10-09T11:53:00.308Z,18
2022-10-09T11:54:00.473Z,16
2022-10-09T11:55:00.342Z,17
2022-10-09T11:56:00.310Z,16
2022-10-09T11:58:00.308Z,15
2022-10-09T11:59:00.400Z,14
2022-10-09T12:00:00.359Z,16
2022-10-09T12:03:00.378Z,19
2022-10-09T12:05:00.348Z,18
2022-10-09T12:06:00.310Z,19
2022-10-09T12:07:00.312Z,18
2022-10-09T12:08:00.320Z,17
2022-10-09T12:13:00.464Z,16
2022-10-09T12:15:00.338Z,15
2022-10-09T12:16:00.384Z,14
2022-10-09T12:17:01.447Z,16
2022-10-09T12:18:00.384Z,17
2022-10-09T12:19:00.313Z,18
2022-10-09T12:20:01.283Z,19
2022-10-09T12:21:00.380Z,18
2022-10-09T12:22:00.311Z,16
2022-10-09T12:25:00.337Z,17
2022-10-09T12:26:00.321Z,18
2022-10-09T12:27:00.319Z,19
2022-10-09T12:28:00.314Z,18
2022-10-09T12:29:00.336Z,17
2022-10-09T12:30:00.342Z,17
2022-10-09T12:31:00.371Z,18
2022-10-09T12:34:00.320Z,19
2022-10-09T12:35:00.347Z,17
2022-10-09T12:36:00.313Z,16
2022-10-09T12:39:00.315Z,15
2022-10-09T12:40:00.459Z,16
2022-10-09T12:45:00.501Z,16
2022-10-09T12:46:00.434Z,18
2022-10-09T12:48:00.320Z,19
2022-10-09T12:49:00.380Z,21
2022-10-09T12:51:00.379Z,20
2022-10-09T12:53:00.318Z,19
2022-10-09T12:54:00.316Z,20
2022-10-09T12:56:00.315Z,19
2022-10-09T12:57:00.384Z,18
2022-10-09T12:58:00.325Z,19
2022-10-09T12:59:00.315Z,17
2022-10-09T13:00:00.354Z,16
2022-10-09T13:02:00.582Z,17
2022-10-09T13:03:00.350Z,16
2022-10-09T13:04:00.326Z,17
2022-10-09T13:06:00.321Z,18
2022-10-09T13:08:00.318Z,19
2022-10-09T13:09:00.317Z,18
2022-10-09T13:10:00.362Z,19
2022-10-09T13:12:00.448Z,18
2022-10-09T13:13:00.318Z,17
2022-10-09T13:15:00.372Z,18
2022-10-09T13:16:00.321Z,17
2022-10-09T13:17:00.377Z,18
2022-10-09T13:18:00.347Z,19
2022-10-09T13:19:00.318Z,20
2022-10-09T13:20:00.346Z,18
2022-10-09T13:22:00.382Z,17
2022-10-09T13:23:00.320Z,18
2022-10-09T13:24:00.320Z,17
2022-10-09T13:25:00.352Z,18
2022-10-09T13:26:03.389Z,20
2022-10-09T13:27:00.323Z,19
2022-10-09T13:28:00.320Z,17
2022-10-09T13:29:00.329Z,18
2022-10-09T13:30:00.351Z,17
2022-10-09T13:31:00.365Z,16
2022-10-09T13:32:00.322Z,14
2022-10-09T13:33:00.418Z,16
2022-10-09T13:34:00.343Z,15
2022-10-09T13:35:00.345Z,18
2022-10-09T13:37:00.320Z,19
2022-10-09T13:38:00.332Z,18
2022-10-09T13:39:00.384Z,19
2022-10-09T13:40:00.359Z,17
2022-10-09T13:41:00.385Z,18
2022-10-09T13:43:00.321Z,19
2022-10-09T13:44:00.322Z,20
2022-10-09T13:45:00.352Z,20
2022-10-09T13:46:00.371Z,19
2022-10-09T13:48:00.328Z,20
2022-10-09T13:49:00.322Z,19
2022-10-09T13:50:00.382Z,20
2022-10-09T13:51:00.324Z,19
2022-10-09T13:53:00.324Z,17
2022-10-09T13:54:00.327Z,18
2022-10-09T13:55:00.350Z,17
2022-10-09T13:56:01.013Z,18
2022-10-09T13:58:00.327Z,20
2022-10-09T14:00:00.458Z,20
2022-10-09T14:01:00.385Z,21
2022-10-09T14:02:00.377Z,20
2022-10-09T14:03:00.391Z,18
2022-10-09T14:04:00.392Z,17
2022-10-09T14:06:00.354Z,16
2022-10-09T14:09:00.342Z,18
2022-10-09T14:10:00.367Z,17
2022-10-09T14:12:00.392Z,18
2022-10-09T14:13:00.327Z,16
2022-10-09T14:14:00.397Z,17
2022-10-09T14:15:00.491Z,17
2022-10-09T14:16:00.328Z,18
2022-10-09T14:17:00.329Z,16
2022-10-09T14:18:00.327Z,17
2022-10-09T14:19:00.326Z,15
2022-10-09T14:20:00.363Z,14
2022-10-09T14:21:00.327Z,13
2022-10-09T14:22:00.414Z,14
2022-10-09T14:23:00.326Z,15
2022-10-09T14:24:00.328Z,16
2022-10-09T14:26:00.327Z,18
2022-10-09T14:28:00.334Z,20
2022-10-09T14:29:00.329Z,19
2022-10-09T14:30:00.370Z,20
2022-10-09T14:32:00.459Z,19
2022-10-09T14:34:00.327Z,18
2022-10-09T14:35:00.371Z,19
2022-10-09T14:36:00.328Z,18
2022-10-09T14:37:00.391Z,19
2022-10-09T14:38:00.367Z,18
2022-10-09T14:40:00.376Z,15
2022-10-09T14:42:00.392Z,13
2022-10-09T14:45:00.366Z,14
2022-10-09T14:46:00.332Z,16
2022-10-09T14:48:00.331Z,17
2022-10-09T14:49:00.329Z,18
2022-10-09T14:50:00.360Z,17
2022-10-09T14:51:01.419Z,16
2022-10-09T14:52:00.394Z,17
2022-10-09T14:55:00.404Z,19
2022-10-09T14:57:00.333Z,18
2022-10-09T14:58:00.331Z,19
2022-10-09T15:00:00.474Z,17
2022-10-09T15:01:00.550Z,18
2022-10-09T15:02:00.361Z,20
2022-10-09T15:03:00.403Z,19
2022-10-09T15:05:00.503Z,20
2022-10-09T15:07:00.396Z,19
2022-10-09T15:08:00.394Z,21
2022-10-09T15:12:01.511Z,19
2022-10-09T15:13:00.334Z,20
2022-10-09T15:15:00.373Z,18
2022-10-09T15:16:00.336Z,19
2022-10-09T15:17:00.342Z,21
2022-10-09T15:18:00.338Z,20
2022-10-09T15:19:00.346Z,18
2022-10-09T15:20:00.364Z,19
2022-10-09T15:21:00.337Z,18
2022-10-09T15:22:00.484Z,17
2022-10-09T15:24:00.413Z,18
2022-10-09T15:25:00.373Z,17
2022-10-09T15:26:00.340Z,18
2022-10-09T15:27:00.340Z,19
2022-10-09T15:28:00.641Z,18
2022-10-09T15:29:00.339Z,17
2022-10-09T15:30:00.386Z,19
2022-10-09T15:31:00.341Z,17
2022-10-09T15:34:00.405Z,18
2022-10-09T15:35:00.376Z,17
2022-10-09T15:36:00.340Z,16
2022-10-09T15:39:00.339Z,15
2022-10-09T15:41:00.471Z,16
2022-10-09T15:42:00.342Z,17
2022-10-09T15:44:00.367Z,18
2022-10-09T15:45:00.379Z,17
2022-10-09T15:46:00.340Z,16
2022-10-09T15:48:00.338Z,15
2022-10-09T15:49:00.338Z,16
2022-10-09T15:50:00.496Z,17
2022-10-09T15:52:00.403Z,16
2022-10-09T15:56:00.340Z,17
2022-10-09T15:58:00.377Z,18
2022-10-09T15:59:00.468Z,17
2022-10-09T16:00:00.622Z,19
2022-10-09T16:01:00.405Z,22
2022-10-09T16:03:00.405Z,23
2022-10-09T16:04:00.405Z,22
2022-10-09T16:05:00.374Z,19
2022-10-09T16:06:00.340Z,18
2022-10-09T16:07:00.404Z,17
2022-10-09T16:08:00.340Z,15
2022-10-09T16:09:00.404Z,16
2022-10-09T16:10:00.373Z,17
2022-10-09T16:11:00.377Z,16
2022-10-09T16:13:00.343Z,17
2022-10-09T16:15:00.521Z,17
2022-10-09T16:17:00.367Z,19
2022-10-09T16:18:00.345Z,18
2022-10-09T16:19:00.345Z,17
2022-10-09T16:20:00.373Z,16
2022-10-09T16:21:00.343Z,17
2022-10-09T16:23:00.345Z,18
2022-10-09T16:26:00.344Z,17
2022-10-09T16:27:00.344Z,16
2022-10-09T16:30:00.376Z,17
2022-10-09T16:32:00.346Z,18
2022-10-09T16:33:00.369Z,20
2022-10-09T16:34:00.365Z,21
2022-10-09T16:35:00.371Z,20
2022-10-09T16:37:00.346Z,19
2022-10-09T16:38:00.350Z,17
2022-10-09T16:40:00.374Z,16
2022-10-09T16:41:02.437Z,17
2022-10-09T16:43:00.347Z,18
2022-10-09T16:44:00.399Z,16
2022-10-09T16:45:00.378Z,17
2022-10-09T16:46:00.348Z,16
2022-10-09T16:49:00.373Z,18
2022-10-09T16:52:00.413Z,17
2022-10-09T16:53:00.349Z,16
2022-10-09T16:54:00.349Z,15
2022-10-09T16:55:00.853Z,16
2022-10-09T16:56:00.352Z,15
2022-10-09T16:58:00.351Z,16
2022-10-09T16:59:00.351Z,17
2022-10-09T17:00:00.400Z,15
2022-10-09T17:03:00.478Z,14
2022-10-09T17:05:00.416Z,15
2022-10-09T17:07:00.350Z,16
2022-10-09T17:08:00.353Z,17
2022-10-09T17:09:00.352Z,18
2022-10-09T17:11:00.413Z,17
2022-10-09T17:12:00.366Z,18
2022-10-09T17:13:00.349Z,17
2022-10-09T17:14:00.357Z,16
2022-10-09T17:15:00.387Z,17
2022-10-09T17:16:00.355Z,21
2022-10-09T17:17:00.349Z,20
2022-10-09T17:18:00.349Z,19
2022-10-09T17:19:00.349Z,20
2022-10-09T17:20:00.401Z,19
2022-10-09T17:21:00.383Z,17
2022-10-09T17:22:00.350Z,16
2022-10-09T17:23:00.380Z,18
2022-10-09T17:25:00.395Z,19
2022-10-09T17:26:00.354Z,16
2022-10-09T17:27:00.351Z,17
2022-10-09T17:28:03.297Z,16
2022-10-09T17:29:00.398Z,15
2022-10-09T17:30:00.486Z,15
2022-10-09T17:31:00.356Z,17
2022-10-09T17:33:00.354Z,19
2022-10-09T17:35:00.491Z,20
2022-10-09T17:38:00.377Z,18
2022-10-09T17:39:00.356Z,17
2022-10-09T17:41:00.419Z,16
2022-10-09T17:42:00.360Z,17
2022-10-09T17:43:00.357Z,19
2022-10-09T17:44:00.357Z,18
2022-10-09T17:45:00.393Z,16
2022-10-09T17:47:00.358Z,15
2022-10-09T17:48:00.425Z,16
2022-10-09T17:51:00.489Z,17
2022-10-09T17:52:00.360Z,19
2022-10-09T17:53:00.360Z,18
2022-10-09T17:55:00.420Z,20
2022-10-09T17:58:00.360Z,18
2022-10-09T17:59:00.360Z,16
2022-10-09T18:00:00.402Z,16
2022-10-09T18:02:00.426Z,14
2022-10-09T18:03:00.360Z,17
2022-10-09T18:04:00.368Z,18
2022-10-09T18:06:00.362Z,17
2022-10-09T18:07:00.362Z,18
2022-10-09T18:08:00.363Z,17
2022-10-09T18:09:00.363Z,16
2022-10-09T18:10:00.407Z,15
2022-10-09T18:12:00.387Z,16
2022-10-09T18:13:00.370Z,15
2022-10-09T18:14:00.374Z,16
2022-10-09T18:15:00.403Z,18
2022-10-09T18:16:00.363Z,16
2022-10-09T18:17:00.362Z,15
2022-10-09T18:18:00.364Z,16
2022-10-09T18:22:00.428Z,18
2022-10-09T18:23:00.364Z,17
2022-10-09T18:27:00.365Z,16
2022-10-09T18:28:00.391Z,15
2022-10-09T18:29:00.379Z,16
2022-10-09T18:30:00.412Z,16
2022-10-09T18:31:00.367Z,17
2022-10-09T18:32:00.367Z,16
2022-10-09T18:34:00.373Z,17
2022-10-09T18:36:00.369Z,16
2022-10-09T18:38:00.368Z,15
2022-10-09T18:39:00.370Z,14
2022-10-09T18:40:00.412Z,15
2022-10-09T18:41:00.366Z,18
2022-10-09T18:42:00.369Z,20
2022-10-09T18:44:00.391Z,21
2022-10-09T18:45:00.394Z,22
2022-10-09T18:47:00.368Z,20
2022-10-09T18:48:00.369Z,22
2022-10-09T18:50:00.413Z,20
2022-10-09T18:51:00.368Z,19
2022-10-09T18:52:00.374Z,18
2022-10-09T18:57:00.370Z,19
2022-10-09T18:58:00.438Z,16
2022-10-09T18:59:00.368Z,17
2022-10-09T19:00:00.436Z,15
2022-10-09T19:01:02.467Z,14
2022-10-09T19:03:00.499Z,16
2022-10-09T19:05:00.526Z,17
2022-10-09T19:06:00.375Z,20
2022-10-09T19:09:00.373Z,19
2022-10-09T19:11:00.438Z,16
2022-10-09T19:12:00.382Z,17
2022-10-09T19:13:00.374Z,18
2022-10-09T19:15:00.415Z,17
2022-10-09T19:16:00.399Z,16
2022-10-09T19:18:00.373Z,15
2022-10-09T19:20:00.400Z,18
2022-10-09T19:22:00.438Z,19
2022-10-09T19:23:00.441Z,18
2022-10-09T19:24:00.396Z,17
2022-10-09T19:25:00.404Z,16
2022-10-09T19:26:00.386Z,19
2022-10-09T19:27:00.376Z,17
2022-10-09T19:28:00.375Z,19
2022-10-09T19:29:00.375Z,20
2022-10-09T19:30:00.428Z,17
2022-10-09T19:31:00.505Z,16
2022-10-09T19:32:00.401Z,18
2022-10-09T19:36:00.375Z,19
2022-10-09T19:37:00.420Z,18
2022-10-09T19:38:00.378Z,16
2022-10-09T19:40:00.412Z,15
2022-10-09T19:42:00.450Z,16
2022-10-09T19:44:00.382Z,18
2022-10-09T19:45:00.407Z,18
2022-10-09T19:46:00.380Z,19
2022-10-09T19:47:00.380Z,18
2022-10-09T19:48:00.683Z,20
2022-10-09T19:50:00.417Z,21
2022-10-09T19:52:00.446Z,20
2022-10-09T19:53:00.386Z,18
2022-10-09T19:55:00.413Z,17
2022-10-09T19:56:00.383Z,16
2022-10-09T19:58:00.392Z,15
2022-10-09T20:00:00.427Z,14
2022-10-09T20:01:00.410Z,15
2022-10-09T20:03:00.384Z,17
2022-10-09T20:04:00.470Z,16
2022-10-09T20:05:00.478Z,18
2022-10-09T20:06:00.387Z,16
2022-10-09T20:07:00.386Z,18
2022-10-09T20:08:00.518Z,19
2022-10-09T20:10:00.424Z,21
2022-10-09T20:11:00.387Z,22
2022-10-09T20:12:00.387Z,21
2022-10-09T20:13:00.386Z,20
2022-10-09T20:15:00.415Z,17
2022-10-09T20:17:00.388Z,18
2022-10-09T20:18:00.388Z,17
2022-10-09T20:19:00.390Z,18
2022-10-09T20:21:00.541Z,17